sensor_id;sensor_type;location;lat;lon;timestamp;P1;durP1;ratioP1;P2;durP2;ratioP2
84168;SDS011;74295;50.146;8.794;2024-02-26T00:09:20;2.30;;;1.40;;
84168;SDS011;74295;50.146;8.794;2024-02-26T00:19:24;2.27;;;1.37;;
84168;SDS011;74295;50.146;8.794;2024-02-26T00:29:26;2.57;;;1.57;;
84168;SDS011;74295;50.146;8.794;2024-02-26T00:39:31;2.33;;;1.87;;
84168;SDS011;74295;50.146;8.794;2024-02-26T00:49:33;4.17;;;2.50;;
84168;SDS011;74295;50.146;8.794;2024-02-26T00:59:37;3.30;;;1.83;;
84168;SDS011;74295;50.146;8.794;2024-02-26T01:09:40;3.37;;;2.30;;
84168;SDS011;74295;50.146;8.794;2024-02-26T01:19:44;1.70;;;1.43;;
84168;SDS011;74295;50.146;8.794;2024-02-26T01:29:46;2.33;;;1.70;;
84168;SDS011;74295;50.146;8.794;2024-02-26T01:39:50;4.27;;;1.60;;
84168;SDS011;74295;50.146;8.794;2024-02-26T01:49:53;2.47;;;1.60;;
84168;SDS011;74295;50.146;8.794;2024-02-26T01:59:58;2.70;;;1.90;;
84168;SDS011;74295;50.146;8.794;2024-02-26T02:10:00;3.80;;;1.90;;
84168;SDS011;74295;50.146;8.794;2024-02-26T02:20:05;3.40;;;1.80;;
84168;SDS011;74295;50.146;8.794;2024-02-26T02:30:12;3.33;;;1.90;;
84168;SDS011;74295;50.146;8.794;2024-02-26T02:40:16;4.07;;;2.30;;
84168;SDS011;74295;50.146;8.794;2024-02-26T02:50:20;3.70;;;1.60;;
84168;SDS011;74295;50.146;8.794;2024-02-26T03:00:23;2.93;;;1.93;;
84168;SDS011;74295;50.146;8.794;2024-02-26T03:10:27;3.43;;;1.90;;
84168;SDS011;74295;50.146;8.794;2024-02-26T03:20:30;2.37;;;1.73;;
84168;SDS011;74295;50.146;8.794;2024-02-26T03:30:34;2.60;;;1.87;;
84168;SDS011;74295;50.146;8.794;2024-02-26T03:40:37;1.97;;;1.53;;
84168;SDS011;74295;50.146;8.794;2024-02-26T03:50:40;2.93;;;1.70;;
84168;SDS011;74295;50.146;8.794;2024-02-26T04:00:43;2.00;;;1.70;;
84168;SDS011;74295;50.146;8.794;2024-02-26T04:10:49;4.00;;;2.57;;
84168;SDS011;74295;50.146;8.794;2024-02-26T04:20:52;5.93;;;2.47;;
84168;SDS011;74295;50.146;8.794;2024-02-26T04:30:56;9.07;;;3.60;;
84168;SDS011;74295;50.146;8.794;2024-02-26T04:40:59;4.83;;;3.27;;
84168;SDS011;74295;50.146;8.794;2024-02-26T04:51:03;3.70;;;2.60;;
84168;SDS011;74295;50.146;8.794;2024-02-26T05:01:06;3.00;;;2.20;;
84168;SDS011;74295;50.146;8.794;2024-02-26T05:11:12;5.13;;;2.60;;
84168;SDS011;74295;50.146;8.794;2024-02-26T05:21:15;7.53;;;4.97;;
84168;SDS011;74295;50.146;8.794;2024-02-26T05:31:19;10.53;;;6.73;;
84168;SDS011;74295;50.146;8.794;2024-02-26T05:41:22;5.83;;;3.10;;
84168;SDS011;74295;50.146;8.794;2024-02-26T05:51:29;3.43;;;2.67;;
84168;SDS011;74295;50.146;8.794;2024-02-26T06:01:31;4.10;;;2.23;;
84168;SDS011;74295;50.146;8.794;2024-02-26T06:11:36;4.63;;;2.47;;
84168;SDS011;74295;50.146;8.794;2024-02-26T06:21:39;4.35;;;3.35;;
84168;SDS011;74295;50.146;8.794;2024-02-26T06:31:43;5.93;;;4.30;;
84168;SDS011;74295;50.146;8.794;2024-02-26T06:41:46;5.67;;;4.03;;
84168;SDS011;74295;50.146;8.794;2024-02-26T06:51:50;4.63;;;3.23;;
84168;SDS011;74295;50.146;8.794;2024-02-26T07:01:53;4.13;;;3.20;;
84168;SDS011;74295;50.146;8.794;2024-02-26T07:11:57;4.97;;;4.37;;
84168;SDS011;74295;50.146;8.794;2024-02-26T07:22:02;6.07;;;3.57;;
84168;SDS011;74295;50.146;8.794;2024-02-26T07:32:06;7.60;;;3.33;;
84168;SDS011;74295;50.146;8.794;2024-02-26T07:42:09;6.90;;;4.17;;
84168;SDS011;74295;50.146;8.794;2024-02-26T07:52:13;5.57;;;3.63;;
84168;SDS011;74295;50.146;8.794;2024-02-26T08:02:16;6.90;;;4.17;;
84168;SDS011;74295;50.146;8.794;2024-02-26T08:12:20;6.03;;;4.20;;
84168;SDS011;74295;50.146;8.794;2024-02-26T08:22:22;7.93;;;4.60;;
84168;SDS011;74295;50.146;8.794;2024-02-26T08:32:26;7.30;;;4.90;;
84168;SDS011;74295;50.146;8.794;2024-02-26T08:42:29;7.37;;;5.60;;
84168;SDS011;74295;50.146;8.794;2024-02-26T08:52:33;12.40;;;6.07;;
84168;SDS011;74295;50.146;8.794;2024-02-26T09:02:36;10.97;;;5.70;;
84168;SDS011;74295;50.146;8.794;2024-02-26T09:12:41;10.60;;;5.53;;
84168;SDS011;74295;50.146;8.794;2024-02-26T09:22:43;7.43;;;5.40;;
84168;SDS011;74295;50.146;8.794;2024-02-26T09:32:47;7.87;;;5.10;;
84168;SDS011;74295;50.146;8.794;2024-02-26T09:42:51;9.97;;;4.83;;
84168;SDS011;74295;50.146;8.794;2024-02-26T09:53:02;9.00;;;5.80;;
84168;SDS011;74295;50.146;8.794;2024-02-26T10:03:09;9.17;;;4.93;;
84168;SDS011;74295;50.146;8.794;2024-02-26T10:13:18;9.70;;;4.83;;
84168;SDS011;74295;50.146;8.794;2024-02-26T10:23:21;6.37;;;4.30;;
84168;SDS011;74295;50.146;8.794;2024-02-26T10:33:25;6.77;;;4.77;;
84168;SDS011;74295;50.146;8.794;2024-02-26T10:43:29;7.67;;;4.77;;
84168;SDS011;74295;50.146;8.794;2024-02-26T10:53:33;7.20;;;4.40;;
84168;SDS011;74295;50.146;8.794;2024-02-26T11:03:37;7.43;;;4.53;;
84168;SDS011;74295;50.146;8.794;2024-02-26T11:13:42;5.77;;;4.30;;
84168;SDS011;74295;50.146;8.794;2024-02-26T11:23:50;6.90;;;3.73;;
84168;SDS011;74295;50.146;8.794;2024-02-26T11:33:54;5.37;;;4.23;;
84168;SDS011;74295;50.146;8.794;2024-02-26T11:43:59;4.97;;;3.47;;
84168;SDS011;74295;50.146;8.794;2024-02-26T11:54:05;7.30;;;4.53;;
84168;SDS011;74295;50.146;8.794;2024-02-26T12:04:11;5.80;;;3.40;;
84168;SDS011;74295;50.146;8.794;2024-02-26T12:14:17;5.77;;;3.73;;
84168;SDS011;74295;50.146;8.794;2024-02-26T12:24:20;6.33;;;4.03;;
84168;SDS011;74295;50.146;8.794;2024-02-26T12:34:25;5.27;;;3.37;;
84168;SDS011;74295;50.146;8.794;2024-02-26T12:44:28;5.30;;;3.50;;
84168;SDS011;74295;50.146;8.794;2024-02-26T12:54:32;4.33;;;3.93;;
84168;SDS011;74295;50.146;8.794;2024-02-26T13:04:40;5.77;;;3.80;;
84168;SDS011;74295;50.146;8.794;2024-02-26T13:14:44;6.10;;;3.73;;
84168;SDS011;74295;50.146;8.794;2024-02-26T13:24:53;5.30;;;4.07;;
84168;SDS011;74295;50.146;8.794;2024-02-26T13:35:04;4.87;;;3.73;;
84168;SDS011;74295;50.146;8.794;2024-02-26T13:45:08;4.77;;;3.57;;
84168;SDS011;74295;50.146;8.794;2024-02-26T13:55:13;5.17;;;3.33;;
84168;SDS011;74295;50.146;8.794;2024-02-26T14:05:16;3.87;;;3.10;;
84168;SDS011;74295;50.146;8.794;2024-02-26T14:15:20;7.73;;;4.13;;
84168;SDS011;74295;50.146;8.794;2024-02-26T14:25:23;6.77;;;3.43;;
84168;SDS011;74295;50.146;8.794;2024-02-26T14:35:31;4.80;;;3.37;;
84168;SDS011;74295;50.146;8.794;2024-02-26T14:45:34;3.13;;;2.80;;
84168;SDS011;74295;50.146;8.794;2024-02-26T14:55:38;3.17;;;2.63;;
84168;SDS011;74295;50.146;8.794;2024-02-26T15:05:42;3.53;;;2.83;;
84168;SDS011;74295;50.146;8.794;2024-02-26T15:15:47;3.77;;;2.70;;
84168;SDS011;74295;50.146;8.794;2024-02-26T15:25:49;6.03;;;2.90;;
84168;SDS011;74295;50.146;8.794;2024-02-26T15:35:53;7.87;;;2.97;;
84168;SDS011;74295;50.146;8.794;2024-02-26T15:45:56;5.43;;;2.60;;
84168;SDS011;74295;50.146;8.794;2024-02-26T15:56:00;5.23;;;3.60;;
84168;SDS011;74295;50.146;8.794;2024-02-26T16:06:03;4.63;;;2.27;;
84168;SDS011;74295;50.146;8.794;2024-02-26T16:16:13;3.93;;;2.63;;
84168;SDS011;74295;50.146;8.794;2024-02-26T16:26:21;3.10;;;2.27;;
84168;SDS011;74295;50.146;8.794;2024-02-26T16:36:25;3.37;;;2.67;;
84168;SDS011;74295;50.146;8.794;2024-02-26T16:46:28;3.70;;;2.53;;
84168;SDS011;74295;50.146;8.794;2024-02-26T16:56:32;4.77;;;2.60;;
84168;SDS011;74295;50.146;8.794;2024-02-26T17:06:34;5.03;;;2.93;;
84168;SDS011;74295;50.146;8.794;2024-02-26T17:16:39;3.43;;;3.00;;
84168;SDS011;74295;50.146;8.794;2024-02-26T17:26:41;3.53;;;2.60;;
84168;SDS011;74295;50.146;8.794;2024-02-26T17:36:45;4.90;;;3.20;;
84168;SDS011;74295;50.146;8.794;2024-02-26T17:46:48;10.60;;;3.30;;
84168;SDS011;74295;50.146;8.794;2024-02-26T17:56:52;9.03;;;3.33;;
84168;SDS011;74295;50.146;8.794;2024-02-26T18:06:56;6.47;;;3.10;;
84168;SDS011;74295;50.146;8.794;2024-02-26T18:17:00;4.47;;;2.93;;
84168;SDS011;74295;50.146;8.794;2024-02-26T18:27:03;3.67;;;2.73;;
84168;SDS011;74295;50.146;8.794;2024-02-26T18:37:07;4.97;;;3.30;;
84168;SDS011;74295;50.146;8.794;2024-02-26T18:47:10;6.00;;;3.33;;
84168;SDS011;74295;50.146;8.794;2024-02-26T18:57:14;5.90;;;3.53;;
84168;SDS011;74295;50.146;8.794;2024-02-26T19:07:17;4.93;;;3.73;;
84168;SDS011;74295;50.146;8.794;2024-02-26T19:17:21;5.33;;;3.97;;
84168;SDS011;74295;50.146;8.794;2024-02-26T19:27:25;7.23;;;4.67;;
84168;SDS011;74295;50.146;8.794;2024-02-26T19:37:29;8.53;;;6.43;;
84168;SDS011;74295;50.146;8.794;2024-02-26T19:47:34;9.07;;;6.33;;
84168;SDS011;74295;50.146;8.794;2024-02-26T19:57:40;11.43;;;8.50;;
84168;SDS011;74295;50.146;8.794;2024-02-26T20:07:42;12.13;;;9.30;;
84168;SDS011;74295;50.146;8.794;2024-02-26T20:17:46;13.23;;;10.20;;
84168;SDS011;74295;50.146;8.794;2024-02-26T20:27:49;14.23;;;10.70;;
84168;SDS011;74295;50.146;8.794;2024-02-26T20:37:53;17.10;;;11.77;;
84168;SDS011;74295;50.146;8.794;2024-02-26T20:47:56;22.37;;;12.83;;
84168;SDS011;74295;50.146;8.794;2024-02-26T20:58:00;19.83;;;14.20;;
84168;SDS011;74295;50.146;8.794;2024-02-26T21:08:03;19.00;;;15.43;;
84168;SDS011;74295;50.146;8.794;2024-02-26T21:18:19;21.10;;;15.50;;
84168;SDS011;74295;50.146;8.794;2024-02-26T21:28:22;20.70;;;15.87;;
84168;SDS011;74295;50.146;8.794;2024-02-26T21:38:26;23.63;;;16.33;;
84168;SDS011;74295;50.146;8.794;2024-02-26T21:48:42;24.67;;;17.70;;
84168;SDS011;74295;50.146;8.794;2024-02-26T21:58:46;22.57;;;17.47;;
84168;SDS011;74295;50.146;8.794;2024-02-26T22:08:49;22.73;;;17.43;;
84168;SDS011;74295;50.146;8.794;2024-02-26T22:18:53;26.37;;;19.07;;
84168;SDS011;74295;50.146;8.794;2024-02-26T22:28:56;26.47;;;19.90;;
84168;SDS011;74295;50.146;8.794;2024-02-26T22:39:00;29.30;;;21.43;;
84168;SDS011;74295;50.146;8.794;2024-02-26T22:49:05;32.30;;;22.80;;
84168;SDS011;74295;50.146;8.794;2024-02-26T22:59:10;35.13;;;24.57;;
84168;SDS011;74295;50.146;8.794;2024-02-26T23:09:13;35.27;;;25.37;;
84168;SDS011;74295;50.146;8.794;2024-02-26T23:19:19;34.33;;;25.60;;
84168;SDS011;74295;50.146;8.794;2024-02-26T23:29:22;37.43;;;26.57;;
84168;SDS011;74295;50.146;8.794;2024-02-26T23:39:26;37.87;;;26.57;;
84168;SDS011;74295;50.146;8.794;2024-02-26T23:49:29;36.50;;;25.90;;
84168;SDS011;74295;50.146;8.794;2024-02-26T23:59:33;35.70;;;26.87;;
